METAR Analyzer

一覧表示

Hello, Guest. (Login)

RJGG/NGO  -  名古屋/中部

観測日時
2024-06-20 06:30 (UTC) (26分前)
気温
25
露点
19
湿数
6
相対湿度
69.4%
QNH
1010.5hPa
推定現地気圧
1010.0hPa
推定海面気圧
1010.5hPa
体感温度
18.7
(無風時)
24.4
HI
25.4
気温前日比
-2
体感温度前日比
-1.9
HI前日比
-2.8
水平視程
>10000m
鉛直視程
データなし
雲底高度
Unknown
V/I
判定不可
RVR
No RVR data
卓越風
9kt from 120°
ガスト
No gust
降水
報告なし
その他の天気
報告なし
少しの(1/8) 積雲 @ 2000ft AGL / 隙間のある雲 @ 不明な高さ

RJGG 200630Z 12009KT 9999 FEW020 BKN/// 25/19 Q1010 NOSIG RMK 1CU020 A2984

[PR]

RJNA/NKM  -  名古屋/小牧

観測日時
2024-06-20 06:00 (UTC) (56分前)
気温
27
露点
19
湿数
8
相対湿度
61.6%
QNH
1010.8hPa
推定現地気圧
1009.1hPa
推定海面気圧
1010.7hPa
体感温度
21.4
(無風時)
25.4
HI
28.2
気温前日比
-4
体感温度前日比
-2.4
HI前日比
-2.8
水平視程
>10000m
鉛直視程
データなし
雲底高度
22000ft AGL
V/I
VMC (VFR)
RVR
No RVR data
卓越風
6kt from 180° (130° ~ 230°)
ガスト
No gust
降水
報告なし
その他の天気
報告なし
少しの(1/8) 積雲 @ 1500ft AGL / 散在する(3/8) 積雲 @ 3000ft AGL / 隙間のある雲 @ 22000ft AGL

RJNA 200600Z 18006KT 130V230 9999 FEW015 SCT030 BKN220 27/19 Q1010 RMK 1CU015 3CU030 A2985

[PR]

RJNS/FSZ  -  静岡

観測日時
2024-06-20 06:00 (UTC) (56分前)
気温
25
露点
19
湿数
6
相対湿度
69.4%
QNH
1011hPa
推定現地気圧
995.3hPa
推定海面気圧
1010.4hPa
体感温度
19.4
(無風時)
24.4
HI
25.4
気温前日比
-1
体感温度前日比
-0.1
HI前日比
-0.8
水平視程
>10000m
鉛直視程
データなし
雲底高度
Unknown
V/I
判定不可
RVR
No RVR data
卓越風
6kt from 220° (200° ~ 260°)
ガスト
No gust
降水
報告なし
その他の天気
報告なし
少しの雲 @ 2500ft AGL / 全天を覆う雲 @ 不明な高さ

RJNS 200600Z 22006KT 200V260 9999 FEW025 OVC/// 25/19 Q1011

[PR]

RJAT  -  滝ヶ原駐屯地

観測日時
2024-06-20 06:00 (UTC) (56分前)
気温
23
露点
12
湿数
11
相対湿度
49.9%
QNH
1014.9hPa
推定現地気圧
1014.9hPa
推定海面気圧
1014.9hPa
体感温度
16
(無風時)
21.8
HI
22.7
気温前日比
-1
体感温度前日比
-1.2
HI前日比
-1.2
水平視程
>10000m
鉛直視程
データなし
雲底高度
20000ft AGL
V/I
VMC (VFR)
RVR
No RVR data
卓越風
7kt from 220°
ガスト
No gust
降水
報告なし
その他の天気
報告なし
少しの(1/8) 層雲 @ 800ft AGL / 散在する(3/8) 積雲 @ 2500ft AGL / 隙間のある(6/8) 巻雲 @ 20000ft AGL

RJAT 200600Z 22007KT 9999 FEW008 SCT025 BKN200 23/12 Q1014 RMK 1ST008 3CU025 6CI200 A2997

[PR]

RJNY  -  静浜基地

観測日時
2024-06-20 06:00 (UTC) (56分前)
気温
25
露点
21
湿数
4
相対湿度
78.5%
QNH
1011.2hPa
推定現地気圧
1010.4hPa
推定海面気圧
1011.2hPa
体感温度
19.3
(無風時)
24.9
HI
25.6
気温前日比
-2
体感温度前日比
-0.9
HI前日比
-1.9
水平視程
>10000m
鉛直視程
データなし
雲底高度
30000ft AGL
V/I
VMC (VFR)
RVR
No RVR data
卓越風
8kt from 190°
ガスト
No gust
降水
報告なし
その他の天気
報告なし
少しの(1/8) 積雲 @ 3000ft AGL / 全天を覆う雲 @ 30000ft AGL

RJNY 200600Z 19008KT 9999 FEW030 OVC300 25/21 Q1011 RMK 1CU030 A2986

[PR]

RJNH  -  浜松基地

観測日時
2024-06-20 06:00 (UTC) (56分前)
気温
25
露点
20
湿数
5
相対湿度
73.8%
QNH
1011.5hPa
推定現地気圧
1006.0hPa
推定海面気圧
1011.3hPa
体感温度
19.6
(無風時)
24.6
HI
25.5
気温前日比
-2
体感温度前日比
-0.8
HI前日比
-2
水平視程
>10000m
鉛直視程
データなし
雲底高度
24000ft AGL
V/I
VMC (VFR)
RVR
No RVR data
卓越風
6kt from 230°
ガスト
No gust
降水
報告なし
その他の天気
報告なし
少しの(1/8) 積雲 @ 2000ft AGL / 全天を覆う雲 @ 24000ft AGL

RJNH 200600Z 23006KT 9999 FEW020 OVC240 25/20 Q1011 RMK 1CU020 A2987

[PR]

RJNG/QGU  -  岐阜基地

観測日時
2024-06-20 06:00 (UTC) (56分前)
気温
27
露点
19
湿数
8
相対湿度
61.6%
QNH
1010.8hPa
推定現地気圧
1006.1hPa
推定海面気圧
1010.6hPa
体感温度
22.4
(無風時)
25.4
HI
28.2
気温前日比
-5
体感温度前日比
-3
HI前日比
-2.8
水平視程
>10000m
鉛直視程
データなし
雲底高度
23000ft AGL
V/I
VMC (VFR)
RVR
No RVR data
卓越風
3kt from 260° (210° ~ 300°)
ガスト
No gust
降水
報告なし
その他の天気
報告なし
少しの(1/8) 積雲 @ 2000ft AGL / 散在する(4/8) 積雲 @ 3500ft AGL / 隙間のある雲 @ 23000ft AGL

RJNG 200600Z 26003KT 210V300 9999 FEW020 SCT035 BKN230 27/19 Q1010 RMK 1CU020 4CU035 A2985

[PR]

RJOE  -  明野駐屯地

観測日時
2024-06-20 06:00 (UTC) (56分前)
気温
27
露点
20
湿数
7
相対湿度
65.6%
QNH
1010.5hPa
推定現地気圧
1009.8hPa
推定海面気圧
1010.5hPa
体感温度
21.2
(無風時)
25.7
HI
28.5
気温前日比
-3
体感温度前日比
-2.3
HI前日比
-1.9
水平視程
>10000m
鉛直視程
データなし
雲底高度
20000ft AGL
V/I
VMC (VFR)
RVR
No RVR data
卓越風
8kt from 180° (150° ~ 210°)
ガスト
No gust
降水
報告なし
その他の天気
報告なし
少しの(1/8) 積雲 @ 1500ft AGL / 隙間のある(7/8) 巻雲 @ 20000ft AGL

RJOE 200600Z 18008KT 150V210 9999 FEW015 BKN200 27/20 Q1010 RMK 1CU015 7CI200 A2984

[PR]
18.9msec